createdAt,value
2018-11-05T00:00:37.140Z,11.29
2018-11-05T00:03:06.653Z,11.24
2018-11-05T00:05:35.691Z,11.32
2018-11-05T00:08:04.839Z,11.26
2018-11-05T00:10:33.808Z,11.30
2018-11-05T00:13:02.768Z,11.39
2018-11-05T00:15:31.751Z,11.45
2018-11-05T00:18:00.747Z,11.19
2018-11-05T00:20:29.700Z,11.18
2018-11-05T00:22:58.676Z,11.18
2018-11-05T00:25:27.611Z,11.27
2018-11-05T00:27:56.584Z,11.21
2018-11-05T00:30:25.513Z,11.25
2018-11-05T00:32:54.495Z,11.36
2018-11-05T00:35:23.448Z,11.28
2018-11-05T00:37:52.419Z,11.32
2018-11-05T00:40:21.378Z,11.29
2018-11-05T00:42:50.301Z,11.37
2018-11-05T00:45:19.619Z,11.26
2018-11-05T00:47:48.603Z,11.30
2018-11-05T00:50:17.547Z,11.20
2018-11-05T00:52:46.548Z,11.24
2018-11-05T00:55:15.467Z,11.27
2018-11-05T00:57:44.410Z,11.27
2018-11-05T01:00:15.357Z,11.26
2018-11-05T01:02:44.315Z,11.24
2018-11-05T01:05:14.653Z,11.23
2018-11-05T01:07:44.382Z,11.13
2018-11-05T01:10:14.769Z,11.14
2018-11-05T01:12:43.741Z,11.08
2018-11-05T01:15:14.019Z,11.19
2018-11-05T01:17:42.997Z,11.11
2018-11-05T01:20:13.048Z,11.20
2018-11-05T01:22:42.082Z,11.25
2018-11-05T01:25:11.120Z,11.26
2018-11-05T01:27:40.216Z,11.25
2018-11-05T01:30:11.652Z,11.22
2018-11-05T01:32:40.708Z,11.22
2018-11-05T01:35:11.067Z,11.21
2018-11-05T01:37:40.079Z,11.28
2018-11-05T01:40:11.159Z,11.17
2018-11-05T01:42:40.313Z,11.17
2018-11-05T01:45:10.543Z,11.13
2018-11-05T01:47:39.705Z,11.07
2018-11-05T01:50:10.375Z,11.13
2018-11-05T01:52:39.473Z,11.16
2018-11-05T01:55:08.994Z,11.21
2018-11-05T01:57:38.681Z,11.22
2018-11-05T02:00:10.863Z,11.05
2018-11-05T02:02:39.899Z,11.19
2018-11-05T02:05:09.696Z,11.12
2018-11-05T02:07:38.790Z,11.23
2018-11-05T02:10:09.855Z,11.24
2018-11-05T02:12:38.854Z,11.16
2018-11-05T02:15:08.161Z,11.20
2018-11-05T02:17:37.144Z,11.14
2018-11-05T02:20:06.426Z,11.16
2018-11-05T02:22:35.377Z,11.19
2018-11-05T02:25:04.598Z,11.11
2018-11-05T02:27:33.623Z,11.20
2018-11-05T02:30:02.561Z,11.22
2018-11-05T02:32:31.529Z,11.18
2018-11-05T02:35:00.486Z,11.16
2018-11-05T02:37:29.437Z,11.23
2018-11-05T02:39:58.402Z,11.28
2018-11-05T02:42:27.374Z,11.20
2018-11-05T02:44:56.348Z,11.25
2018-11-05T02:47:25.309Z,11.23
2018-11-05T02:49:54.249Z,11.31
2018-11-05T02:52:23.245Z,11.34
2018-11-05T02:54:52.254Z,11.40
2018-11-05T02:57:21.207Z,11.36
2018-11-05T02:59:50.867Z,11.30
2018-11-05T03:02:19.874Z,11.30
2018-11-05T03:04:48.834Z,11.22
2018-11-05T03:07:17.839Z,11.32
2018-11-05T03:09:46.786Z,11.42
2018-11-05T03:12:15.792Z,11.41
2018-11-05T03:14:44.740Z,11.35
2018-11-05T03:17:13.680Z,11.28
2018-11-05T03:19:43.148Z,11.27
2018-11-05T03:22:12.126Z,11.49
2018-11-05T03:24:41.106Z,11.34
2018-11-05T03:27:10.123Z,11.18
2018-11-05T03:29:39.136Z,11.44
2018-11-05T03:32:08.112Z,11.39
2018-11-05T03:34:37.104Z,11.45
2018-11-05T03:37:06.087Z,11.36
2018-11-05T03:39:35.071Z,11.33
2018-11-05T03:42:04.097Z,11.38
2018-11-05T03:44:33.134Z,11.39
2018-11-05T03:47:02.153Z,11.36
2018-11-05T03:49:31.147Z,11.39
2018-11-05T03:52:00.137Z,11.33
2018-11-05T03:54:29.081Z,11.39
2018-11-05T03:56:58.078Z,11.37
2018-11-05T03:59:27.052Z,11.36
2018-11-05T04:01:56.025Z,11.36
2018-11-05T04:04:25.049Z,11.25
2018-11-05T04:06:54.068Z,11.26
2018-11-05T04:09:23.023Z,11.32
2018-11-05T04:11:52.062Z,11.22
2018-11-05T04:14:21.032Z,11.34
2018-11-05T04:16:50.021Z,11.37
2018-11-05T04:19:18.968Z,11.50
2018-11-05T04:21:47.951Z,11.25
2018-11-05T04:24:16.951Z,11.46
2018-11-05T04:26:46.558Z,11.45
2018-11-05T04:29:15.511Z,11.45
2018-11-05T04:31:44.488Z,11.41
2018-11-05T04:34:13.465Z,11.41
2018-11-05T04:36:42.400Z,11.36
2018-11-05T04:39:13.999Z,11.39
2018-11-05T04:41:42.997Z,11.34
2018-11-05T04:44:11.978Z,11.41
2018-11-05T04:46:41.088Z,11.34
2018-11-05T04:49:10.554Z,11.43
2018-11-05T04:51:39.505Z,11.41
2018-11-05T04:54:08.494Z,11.48
2018-11-05T04:56:37.549Z,11.32
2018-11-05T04:59:07.073Z,11.41
2018-11-05T05:01:36.074Z,11.48
2018-11-05T05:04:05.059Z,11.44
2018-11-05T05:06:33.996Z,11.43
2018-11-05T05:09:02.937Z,11.48
2018-11-05T05:11:31.924Z,11.49
2018-11-05T05:14:00.871Z,11.62
2018-11-05T05:16:29.851Z,11.49
2018-11-05T05:18:58.791Z,11.57
2018-11-05T05:21:27.781Z,11.54
2018-11-05T05:23:56.697Z,11.43
2018-11-05T05:26:25.778Z,11.43
2018-11-05T05:28:54.727Z,11.43
2018-11-05T05:31:23.720Z,11.45
2018-11-05T05:33:52.693Z,11.47
2018-11-05T05:36:21.624Z,11.43
2018-11-05T05:38:50.597Z,11.54
2018-11-05T05:41:19.589Z,11.47
2018-11-05T05:43:48.533Z,11.50
2018-11-05T05:46:17.488Z,11.62
2018-11-05T05:48:46.465Z,11.69
2018-11-05T05:51:15.576Z,11.67
2018-11-05T05:53:44.512Z,11.61
2018-11-05T05:56:13.510Z,11.54
2018-11-05T05:58:42.493Z,11.63
2018-11-05T06:01:11.445Z,11.67
2018-11-05T06:03:40.553Z,11.62
2018-11-05T06:06:09.862Z,11.60
2018-11-05T06:08:38.875Z,11.58
2018-11-05T06:11:07.814Z,11.57
2018-11-05T06:13:36.802Z,11.61
2018-11-05T06:16:05.801Z,11.50
2018-11-05T06:18:34.802Z,11.51
2018-11-05T06:21:03.776Z,11.60
2018-11-05T06:23:32.826Z,11.58
2018-11-05T06:26:01.766Z,11.64
2018-11-05T06:28:30.809Z,11.59
2018-11-05T06:30:59.741Z,11.66
2018-11-05T06:33:28.636Z,11.71
2018-11-05T06:35:57.655Z,11.73
2018-11-05T06:38:26.644Z,11.68
2018-11-05T06:40:55.620Z,11.67
2018-11-05T06:43:24.555Z,11.73
2018-11-05T06:45:53.481Z,11.74
2018-11-05T06:48:22.414Z,11.74
2018-11-05T06:50:51.358Z,11.59
2018-11-05T06:53:20.344Z,11.75
2018-11-05T06:55:49.311Z,11.73
2018-11-05T06:58:18.276Z,11.72
2018-11-05T07:00:47.219Z,11.70
2018-11-05T07:03:16.187Z,11.73
2018-11-05T07:05:46.943Z,11.65
2018-11-05T07:08:15.872Z,11.69
2018-11-05T07:10:44.830Z,11.81
2018-11-05T07:13:15.340Z,11.70
2018-11-05T07:15:44.902Z,11.85
2018-11-05T07:18:13.905Z,11.85
2018-11-05T07:20:45.590Z,11.74
2018-11-05T07:23:17.129Z,11.80
2018-11-05T07:25:46.632Z,11.90
2018-11-05T07:28:16.280Z,11.78
2018-11-05T07:30:45.230Z,11.76
2018-11-05T07:33:16.572Z,11.75
2018-11-05T07:35:46.605Z,11.72
2018-11-05T07:38:16.550Z,11.80
2018-11-05T07:40:45.513Z,11.76
2018-11-05T07:43:14.463Z,11.81
2018-11-05T07:45:43.984Z,11.81
2018-11-05T07:48:12.927Z,11.72
2018-11-05T07:50:42.931Z,11.72
2018-11-05T07:53:13.348Z,11.76
2018-11-05T07:55:42.331Z,11.79
2018-11-05T07:58:11.957Z,11.94
2018-11-05T08:00:46.258Z,11.93
2018-11-05T08:03:15.257Z,11.92
2018-11-05T08:05:45.322Z,11.87
2018-11-05T08:08:14.356Z,11.89
2018-11-05T08:10:43.244Z,11.92
2018-11-05T08:13:14.799Z,11.96
2018-11-05T08:15:44.397Z,11.96
2018-11-05T08:18:13.383Z,11.99
2018-11-05T08:20:44.808Z,12.05
2018-11-05T08:23:13.728Z,11.95
2018-11-05T08:25:42.705Z,11.97
2018-11-05T08:28:12.774Z,11.91
2018-11-05T08:30:41.680Z,11.98
2018-11-05T08:33:10.749Z,11.98
2018-11-05T08:35:39.707Z,12.04
2018-11-05T08:38:08.639Z,12.11
2018-11-05T08:40:38.367Z,12.03
2018-11-05T08:43:07.327Z,12.10
2018-11-05T08:45:36.255Z,12.17
2018-11-05T08:48:05.343Z,12.06
2018-11-05T08:50:34.734Z,12.11
2018-11-05T08:53:03.812Z,12.10
2018-11-05T08:55:32.747Z,12.21
2018-11-05T08:58:02.544Z,12.17
2018-11-05T09:00:37.403Z,12.20
2018-11-05T09:03:06.510Z,12.26
2018-11-05T09:05:36.510Z,12.28
2018-11-05T09:08:05.459Z,12.26
2018-11-05T09:10:35.191Z,12.29
2018-11-05T09:13:05.260Z,12.31
2018-11-05T09:15:37.041Z,12.33
2018-11-05T09:18:07.321Z,12.31
2018-11-05T09:20:36.296Z,12.40
2018-11-05T09:23:05.723Z,12.45
2018-11-05T09:25:36.508Z,12.46
2018-11-05T09:28:08.186Z,12.51
2018-11-05T09:30:37.115Z,12.36
2018-11-05T09:33:06.054Z,12.38
2018-11-05T09:35:35.047Z,12.37
2018-11-05T09:38:04.728Z,12.46
2018-11-05T09:40:33.699Z,12.47
2018-11-05T09:43:02.668Z,12.45
2018-11-05T09:45:32.648Z,12.51
2018-11-05T09:48:01.629Z,12.50
2018-11-05T09:50:32.632Z,12.62
2018-11-05T09:53:01.597Z,12.54
2018-11-05T09:55:30.583Z,12.46
2018-11-05T09:57:59.558Z,12.44
2018-11-05T10:00:29.466Z,12.47
2018-11-05T10:03:03.891Z,12.54
2018-11-05T10:05:33.560Z,12.57
2018-11-05T10:08:02.459Z,12.67
2018-11-05T10:10:34.230Z,12.54
2018-11-05T10:13:03.246Z,12.73
2018-11-05T10:15:32.254Z,12.73
2018-11-05T10:18:01.193Z,12.71
2018-11-05T10:20:30.120Z,12.72
2018-11-05T10:23:00.939Z,12.63
2018-11-05T10:25:29.921Z,12.70
2018-11-05T10:28:03.486Z,12.64
2018-11-05T10:30:33.137Z,12.69
2018-11-05T10:33:02.107Z,12.81
2018-11-05T10:36:04.327Z,12.79
2018-11-05T10:38:35.500Z,12.64
2018-11-05T10:41:04.461Z,12.74
2018-11-05T10:43:34.016Z,12.73
2018-11-05T10:46:03.041Z,12.70
2018-11-05T10:48:33.016Z,12.75
2018-11-05T10:51:02.062Z,12.78
2018-11-05T10:53:30.947Z,12.85
2018-11-05T10:56:00.814Z,12.84
2018-11-05T10:58:30.595Z,12.87
2018-11-05T11:01:05.322Z,12.89
2018-11-05T11:03:36.643Z,12.94
2018-11-05T11:06:06.832Z,12.89
2018-11-05T11:08:35.768Z,12.83
2018-11-05T11:11:06.797Z,12.89
2018-11-05T11:13:36.972Z,12.98
2018-11-05T11:16:05.900Z,12.97
2018-11-05T11:18:35.889Z,12.88
2018-11-05T11:21:05.334Z,12.96
2018-11-05T11:23:34.793Z,12.84
2018-11-05T11:26:03.766Z,12.93
2018-11-05T11:28:32.919Z,12.99
2018-11-05T11:31:01.860Z,12.99
2018-11-05T11:33:34.228Z,12.98
2018-11-05T11:36:03.801Z,13.05
2018-11-05T11:38:32.877Z,13.05
2018-11-05T11:41:02.327Z,13.03
2018-11-05T11:43:32.165Z,13.08
2018-11-05T11:46:01.187Z,13.03
2018-11-05T11:48:31.077Z,12.92
2018-11-05T11:51:00.050Z,12.82
2018-11-05T11:53:30.516Z,12.98
2018-11-05T11:55:59.980Z,12.87
2018-11-05T11:58:28.907Z,12.83
2018-11-05T12:00:57.915Z,12.90
2018-11-05T12:03:26.879Z,12.90
2018-11-05T12:05:55.796Z,12.87
2018-11-05T12:08:24.767Z,12.88
2018-11-05T12:10:53.724Z,12.87
2018-11-05T12:13:22.698Z,12.90
2018-11-05T12:15:52.700Z,12.93
2018-11-05T12:18:22.525Z,13.03
2018-11-05T12:20:52.361Z,12.92
2018-11-05T12:23:21.302Z,12.93
2018-11-05T12:25:51.087Z,12.94
2018-11-05T12:28:20.798Z,12.96
2018-11-05T12:30:49.731Z,12.94
2018-11-05T12:33:19.929Z,13.01
2018-11-05T12:35:50.377Z,13.02
2018-11-05T12:38:19.340Z,13.14
2018-11-05T12:40:48.334Z,13.07
2018-11-05T12:43:20.416Z,13.06
2018-11-05T12:45:50.706Z,13.07
2018-11-05T12:48:20.893Z,13.02
2018-11-05T12:50:50.015Z,13.03
2018-11-05T12:53:18.868Z,13.09
2018-11-05T12:55:48.761Z,13.03
2018-11-05T12:58:17.936Z,12.99
2018-11-05T13:00:47.620Z,12.91
2018-11-05T13:03:16.596Z,13.00
2018-11-05T13:05:45.511Z,12.97
2018-11-05T13:08:14.489Z,12.95
2018-11-05T13:10:44.349Z,12.99
2018-11-05T13:13:13.310Z,13.06
2018-11-05T13:15:43.287Z,13.12
2018-11-05T13:18:12.768Z,13.13
2018-11-05T13:20:43.040Z,13.17
2018-11-05T13:23:12.055Z,13.14
2018-11-05T13:25:40.997Z,13.21
2018-11-05T13:28:09.994Z,13.01
2018-11-05T13:30:38.959Z,13.13
2018-11-05T13:33:07.910Z,12.99
2018-11-05T13:35:40.496Z,12.99
2018-11-05T13:38:10.000Z,13.00
2018-11-05T13:40:38.406Z,13.00
2018-11-05T13:43:08.090Z,12.95
2018-11-05T13:45:37.766Z,13.01
2018-11-05T13:48:06.944Z,13.10
2018-11-05T13:50:36.323Z,13.06
2018-11-05T13:53:06.213Z,13.20
2018-11-05T13:55:35.857Z,13.23
2018-11-05T13:58:05.371Z,13.26
2018-11-05T14:00:34.858Z,13.27
2018-11-05T14:03:03.903Z,13.20
2018-11-05T14:05:32.963Z,13.13
2018-11-05T14:08:02.694Z,13.20
2018-11-05T14:10:32.802Z,13.11
2018-11-05T14:13:01.787Z,13.20
2018-11-05T14:15:31.195Z,13.17
2018-11-05T14:18:00.294Z,13.20
2018-11-05T14:20:30.046Z,13.18
2018-11-05T14:22:59.025Z,13.10
2018-11-05T14:25:28.367Z,13.19
2018-11-05T14:27:58.142Z,13.19
2018-11-05T14:30:28.161Z,13.21
2018-11-05T14:32:57.235Z,13.20
2018-11-05T14:35:26.188Z,13.08
2018-11-05T14:37:55.165Z,12.98
2018-11-05T14:40:25.103Z,12.98
2018-11-05T14:42:54.093Z,13.10
2018-11-05T14:45:26.075Z,13.15
2018-11-05T14:47:55.000Z,13.17
2018-11-05T14:50:24.987Z,13.13
2018-11-05T14:52:53.949Z,13.23
2018-11-05T14:55:23.591Z,13.02
2018-11-05T14:57:52.768Z,13.04
2018-11-05T15:00:26.188Z,13.10
2018-11-05T15:02:56.575Z,13.02
2018-11-05T15:05:25.539Z,13.01
2018-11-05T15:07:54.991Z,13.08
2018-11-05T15:10:26.270Z,13.04
2018-11-05T15:12:55.259Z,13.18
2018-11-05T15:15:24.247Z,13.14
2018-11-05T15:17:53.242Z,13.09
2018-11-05T15:20:24.052Z,13.16
2018-11-05T15:22:57.033Z,13.22
2018-11-05T15:25:26.117Z,13.19
2018-11-05T15:27:55.671Z,13.16
2018-11-05T15:30:25.898Z,13.19
2018-11-05T15:32:55.853Z,13.04
2018-11-05T15:35:26.224Z,13.06
2018-11-05T15:37:55.333Z,13.18
2018-11-05T15:40:25.271Z,13.04
2018-11-05T15:42:54.273Z,13.08
2018-11-05T15:45:23.357Z,13.02
2018-11-05T15:47:52.320Z,13.00
2018-11-05T15:50:21.867Z,12.94
2018-11-05T15:52:53.440Z,13.10
2018-11-05T15:55:22.151Z,12.97
2018-11-05T15:57:51.844Z,13.06
2018-11-05T16:00:25.686Z,13.03
2018-11-05T16:02:57.030Z,12.94
2018-11-05T16:05:27.153Z,12.94
2018-11-05T16:07:56.141Z,12.95
2018-11-05T16:10:25.901Z,13.04
2018-11-05T16:12:57.772Z,12.92
2018-11-05T16:15:27.832Z,13.03
2018-11-05T16:17:59.527Z,13.10
2018-11-05T16:20:28.471Z,13.01
2018-11-05T16:22:57.424Z,12.82
2018-11-05T16:25:26.370Z,13.13
2018-11-05T16:27:57.631Z,13.05
2018-11-05T16:30:26.648Z,13.10
2018-11-05T16:32:55.589Z,13.03
2018-11-05T16:35:26.482Z,13.02
2018-11-05T16:37:55.414Z,13.12
2018-11-05T16:40:25.534Z,13.03
2018-11-05T16:42:55.803Z,13.10
2018-11-05T16:45:25.818Z,13.09
2018-11-05T16:47:55.690Z,12.99
2018-11-05T16:50:27.347Z,13.03
2018-11-05T16:52:56.926Z,13.04
2018-11-05T16:55:27.745Z,13.05
2018-11-05T16:57:59.962Z,13.22
2018-11-05T17:00:28.966Z,12.99
2018-11-05T17:02:57.984Z,13.20
2018-11-05T17:05:29.686Z,13.08
2018-11-05T17:07:59.253Z,12.96
2018-11-05T17:10:28.284Z,13.02
2018-11-05T17:13:00.387Z,13.01
2018-11-05T17:15:29.313Z,12.87
2018-11-05T17:17:58.326Z,12.81
2018-11-05T17:20:27.315Z,12.80
2018-11-05T17:22:56.326Z,12.77
2018-11-05T17:25:25.326Z,12.76
2018-11-05T17:27:55.036Z,12.82
2018-11-05T17:30:23.973Z,12.72
2018-11-05T17:32:53.641Z,12.94
2018-11-05T17:35:22.653Z,12.80
2018-11-05T17:37:53.634Z,12.86
2018-11-05T17:40:23.980Z,12.74
2018-11-05T17:42:53.815Z,12.75
2018-11-05T17:45:24.329Z,12.76
2018-11-05T17:47:53.329Z,12.79
2018-11-05T17:50:23.283Z,12.62
2018-11-05T17:52:52.252Z,12.66
2018-11-05T17:55:22.200Z,12.68
2018-11-05T17:57:51.218Z,12.66
2018-11-05T18:00:21.403Z,12.61
2018-11-05T18:02:50.405Z,12.70
2018-11-05T18:05:20.201Z,12.76
2018-11-05T18:07:49.531Z,12.62
2018-11-05T18:10:18.548Z,12.54
2018-11-05T18:12:47.551Z,12.69
2018-11-05T18:15:17.661Z,12.70
2018-11-05T18:17:47.107Z,12.61
2018-11-05T18:20:16.823Z,12.47
2018-11-05T18:22:47.917Z,12.50
2018-11-05T18:25:18.222Z,12.65
2018-11-05T18:27:47.891Z,12.42
2018-11-05T18:30:20.212Z,12.49
2018-11-05T18:32:49.245Z,12.30
2018-11-05T18:35:18.225Z,12.48
2018-11-05T18:37:50.187Z,12.47
2018-11-05T18:40:20.783Z,12.59
2018-11-05T18:42:51.079Z,12.44
2018-11-05T18:45:20.171Z,12.47
2018-11-05T18:47:50.911Z,12.51
2018-11-05T18:50:19.982Z,12.34
2018-11-05T18:52:49.647Z,12.29
2018-11-05T18:55:20.029Z,12.41
2018-11-05T18:57:52.015Z,12.33
2018-11-05T19:00:25.837Z,12.21
2018-11-05T19:02:56.268Z,12.09
2018-11-05T19:05:26.397Z,12.29
2018-11-05T19:07:55.455Z,12.29
2018-11-05T19:10:24.724Z,12.29
2018-11-05T19:12:56.571Z,12.17
2018-11-05T19:15:25.573Z,12.18
2018-11-05T19:17:55.901Z,12.02
2018-11-05T19:20:26.199Z,12.05
2018-11-05T19:22:55.285Z,12.05
2018-11-05T19:25:24.186Z,11.87
2018-11-05T19:27:53.251Z,11.98
2018-11-05T19:30:23.875Z,12.14
2018-11-05T19:32:52.835Z,12.17
2018-11-05T19:35:21.830Z,12.16
2018-11-05T19:37:52.938Z,12.17
2018-11-05T19:40:21.939Z,12.06
2018-11-05T19:42:51.094Z,12.13
2018-11-05T19:45:21.356Z,11.83
2018-11-05T19:47:50.329Z,11.97
2018-11-05T19:50:20.591Z,11.94
2018-11-05T19:52:50.596Z,11.83
2018-11-05T19:55:19.998Z,11.88
2018-11-05T19:57:49.610Z,11.82
2018-11-05T20:00:20.185Z,11.71
2018-11-05T20:02:49.785Z,11.69
2018-11-05T20:05:19.057Z,11.66
2018-11-05T20:07:48.580Z,11.69
2018-11-05T20:10:17.611Z,11.51
2018-11-05T20:12:46.934Z,11.60
2018-11-05T20:15:16.273Z,11.56
2018-11-05T20:17:46.105Z,11.70
2018-11-05T20:20:16.559Z,11.72
2018-11-05T20:22:45.670Z,11.72
2018-11-05T20:25:14.620Z,11.68
2018-11-05T20:27:43.883Z,11.68
2018-11-05T20:30:15.548Z,11.70
2018-11-05T20:32:45.813Z,11.63
2018-11-05T20:35:14.622Z,11.52
2018-11-05T20:37:43.599Z,11.65
2018-11-05T20:40:14.907Z,11.61
2018-11-05T20:42:45.001Z,11.61
2018-11-05T20:45:14.635Z,11.71
2018-11-05T20:47:43.864Z,11.64
2018-11-05T20:50:13.783Z,11.68
2018-11-05T20:52:42.767Z,11.63
2018-11-05T20:55:13.072Z,11.67
2018-11-05T20:57:42.502Z,11.55
2018-11-05T21:00:13.280Z,11.42
2018-11-05T21:02:42.689Z,11.42
2018-11-05T21:05:11.733Z,11.46
2018-11-05T21:07:41.745Z,11.46
2018-11-05T21:10:11.919Z,11.50
2018-11-05T21:12:41.605Z,11.46
2018-11-05T21:15:13.859Z,11.45
2018-11-05T21:17:43.407Z,11.46
2018-11-05T21:20:12.763Z,11.46
2018-11-05T21:22:41.851Z,11.34
2018-11-05T21:25:10.983Z,11.43
2018-11-05T21:27:40.544Z,11.32
2018-11-05T21:30:11.334Z,11.32
2018-11-05T21:32:40.474Z,11.42
2018-11-05T21:35:11.668Z,11.33
2018-11-05T21:37:41.003Z,11.32
2018-11-05T21:40:11.104Z,11.26
2018-11-05T21:42:40.138Z,10.99
2018-11-05T21:45:10.486Z,10.88
2018-11-05T21:47:40.148Z,10.96
2018-11-05T21:50:10.810Z,11.00
2018-11-05T21:52:40.653Z,10.90
2018-11-05T21:55:09.803Z,11.11
2018-11-05T21:57:40.470Z,11.08
2018-11-05T22:00:18.249Z,11.05
2018-11-05T22:02:52.486Z,11.00
2018-11-05T22:05:21.463Z,11.04
2018-11-05T22:07:50.485Z,11.11
2018-11-05T22:10:19.455Z,10.93
2018-11-05T22:12:48.755Z,10.90
2018-11-05T22:15:17.975Z,11.04
2018-11-05T22:17:46.950Z,11.00
2018-11-05T22:20:15.884Z,10.95
2018-11-05T22:22:45.008Z,11.02
2018-11-05T22:25:13.873Z,10.83
2018-11-05T22:27:42.818Z,10.79
2018-11-05T22:30:12.290Z,10.76
2018-11-05T22:32:41.260Z,10.66
2018-11-05T22:35:10.223Z,10.88
2018-11-05T22:37:39.168Z,10.90
2018-11-05T22:40:10.807Z,10.93
2018-11-05T22:42:39.772Z,10.69
2018-11-05T22:45:09.157Z,10.73
2018-11-05T22:47:38.136Z,10.71
2018-11-05T22:50:07.762Z,10.75
2018-11-05T22:52:36.797Z,10.79
2018-11-05T22:55:06.332Z,10.75
2018-11-05T22:57:35.297Z,10.60
2018-11-05T23:00:05.463Z,10.48
2018-11-05T23:02:34.932Z,10.43
2018-11-05T23:05:03.916Z,10.56
2018-11-05T23:07:32.864Z,10.58
2018-11-05T23:10:01.855Z,10.54
2018-11-05T23:12:30.846Z,10.66
2018-11-05T23:14:59.821Z,10.41
2018-11-05T23:17:28.797Z,10.49
2018-11-05T23:19:57.821Z,10.58
2018-11-05T23:22:26.805Z,10.52
2018-11-05T23:24:55.823Z,10.37
2018-11-05T23:27:24.742Z,10.31
2018-11-05T23:29:55.762Z,10.45
2018-11-05T23:32:25.900Z,10.44
2018-11-05T23:34:54.882Z,10.16
2018-11-05T23:37:23.838Z,10.23
2018-11-05T23:39:52.775Z,10.10
2018-11-05T23:42:21.788Z,10.01
2018-11-05T23:44:50.786Z,9.99
2018-11-05T23:47:19.733Z,10.11
2018-11-05T23:49:48.759Z,10.13
2018-11-05T23:52:17.745Z,9.85
2018-11-05T23:54:46.734Z,9.89
2018-11-05T23:57:15.701Z,9.96
2018-11-05T23:59:44.645Z,9.91
